EKKL weather

Kalundborg Airport
Kalundborg, Zealand, Denmark

Public forecast

Using degrees Celsius for public forecast. Weather courtesy of forecast.io.

Closest aviation weather report (METAR) to Kalundborg Airport

Closest report is Copenhagen Roskilde Airport, 30.6 nm (56.8 km) ESE. Retrieved 2020/04/09 23:20 UTC (5 minutes ago):

EKRK 092320Z AUTO 27004KT 9999 BKN230/// 03/00 Q1026

Closest aviation forecast (TAF) to Kalundborg Airport

Forecast is more than 12 hours old.

Closest forecast is Aarhus Airport, 41.8 nm (77.4 km) NNW. Retrieved 2020/03/30 06:00 UTC (11 days ago):

TAF EKAH 300502Z 3006/3106 30008KT 9999 FEW030 BECMG 3006/3009 02015KT BECMG 3018/3020 01005KT